HVN1 VVDH-VVCT
Flight info
| Callsign | HVN1 |
|---|---|
| Flight time | N/A |
| Altitude | 36000 |
| Route | KONCO1N KONCO W2 DAN Q1 BMT W12 MOXEB MOXEB1G |
| Aircraft | A321/M-SDE2E3FGHIRWXY/LB1 |
Departure
| Time | 2026-04-17 12:32 |
|---|---|
| Airport | Dong Hoi Airport (VVDH) |
Arrival
| Time | N/A |
|---|---|
| Airport | Can Tho International Airport (VVCT) |
| Time | Latitude | Longitude | Altitude | Speed | Heading |
|---|---|---|---|---|---|
| 2026-04-17 12:20 | 17.51323 | 106.58998 | 67 ft | 0 kts | 204° |
| 2026-04-17 12:25 | 17.51316 | 106.58995 | 67 ft | 0 kts | 204° |
| 2026-04-17 12:25 | 17.51309 | 106.58991 | 67 ft | 3 kts | 222° |
| 2026-04-17 12:26 | 17.51309 | 106.58964 | 67 ft | 4 kts | 282° |
| 2026-04-17 12:26 | 17.51325 | 106.58942 | 67 ft | 4 kts | 340° |
| 2026-04-17 12:26 | 17.51350 | 106.58950 | 67 ft | 4 kts | 22° |
| 2026-04-17 12:26 | 17.51374 | 106.58961 | 67 ft | 4 kts | 28° |
| 2026-04-17 12:27 | 17.51378 | 106.58983 | 67 ft | 3 kts | 101° |
| 2026-04-17 12:27 | 17.51380 | 106.59007 | 67 ft | 3 kts | 56° |
| 2026-04-17 12:27 | 17.51404 | 106.59018 | 67 ft | 6 kts | 21° |
| 2026-04-17 12:27 | 17.51480 | 106.59053 | 67 ft | 15 kts | 24° |
| 2026-04-17 12:28 | 17.51494 | 106.59140 | 67 ft | 14 kts | 112° |
| 2026-04-17 12:28 | 17.51442 | 106.59263 | 67 ft | 24 kts | 112° |
| 2026-04-17 12:28 | 17.51302 | 106.59376 | 67 ft | 34 kts | 213° |
| 2026-04-17 12:28 | 17.51237 | 106.59406 | 67 ft | 14 kts | 75° |
| 2026-04-17 12:29 | 17.51278 | 106.59541 | 67 ft | 25 kts | 69° |
| 2026-04-17 12:29 | 17.51270 | 106.59667 | 67 ft | 21 kts | 114° |
| 2026-04-17 12:29 | 17.51206 | 106.59816 | 67 ft | 22 kts | 114° |
| 2026-04-17 12:29 | 17.51144 | 106.59962 | 67 ft | 21 kts | 114° |
| 2026-04-17 12:30 | 17.51085 | 106.60102 | 67 ft | 20 kts | 114° |
| 2026-04-17 12:30 | 17.51028 | 106.60235 | 67 ft | 20 kts | 114° |
| 2026-04-17 12:30 | 17.50975 | 106.60362 | 67 ft | 19 kts | 114° |
| 2026-04-17 12:30 | 17.50924 | 106.60469 | 67 ft | 12 kts | 148° |
| 2026-04-17 12:31 | 17.50870 | 106.60509 | 67 ft | 6 kts | 111° |
| 2026-04-17 12:31 | 17.50889 | 106.60533 | 67 ft | 6 kts | 333° |
| 2026-04-17 12:31 | 17.50920 | 106.60490 | 67 ft | 16 kts | 302° |
| 2026-04-17 12:31 | 17.51066 | 106.60154 | 67 ft | 86 kts | 292° |
| 2026-04-17 12:32 | 17.51396 | 106.59370 | 68 ft | 150 kts | 294° |
| 2026-04-17 12:32 | 17.51868 | 106.58254 | 478 ft | 173 kts | 293° |
| 2026-04-17 12:32 | 17.52345 | 106.57112 | 1369 ft | 172 kts | 294° |
| 2026-04-17 12:32 | 17.52843 | 106.55963 | 2073 ft | 175 kts | 294° |
| 2026-04-17 12:33 | 17.53374 | 106.54738 | 2403 ft | 195 kts | 294° |
| 2026-04-17 12:33 | 17.53964 | 106.53374 | 2682 ft | 216 kts | 294° |
| 2026-04-17 12:33 | 17.54402 | 106.51804 | 2966 ft | 233 kts | 274° |
| 2026-04-17 12:33 | 17.54095 | 106.50150 | 3532 ft | 233 kts | 243° |
| 2026-04-17 12:34 | 17.53062 | 106.48875 | 4266 ft | 229 kts | 213° |
| 2026-04-17 12:34 | 17.51647 | 106.48084 | 4904 ft | 232 kts | 208° |
| 2026-04-17 12:34 | 17.50239 | 106.47313 | 5681 ft | 231 kts | 199° |
| 2026-04-17 12:34 | 17.48649 | 106.46941 | 6296 ft | 236 kts | 190° |
| 2026-04-17 12:35 | 17.47075 | 106.46487 | 6972 ft | 240 kts | 198° |
| 2026-04-17 12:35 | 17.45442 | 106.46133 | 7636 ft | 242 kts | 179° |
| 2026-04-17 12:35 | 17.43807 | 106.46546 | 8269 ft | 245 kts | 152° |
| 2026-04-17 12:35 | 17.42482 | 106.47714 | 8711 ft | 259 kts | 127° |
| 2026-04-17 12:37 | 17.36310 | 106.61900 | 11629 ft | 359 kts | 116° |
| 2026-04-17 12:37 | 17.35227 | 106.64329 | 11875 ft | 376 kts | 116° |
| 2026-04-17 12:38 | 17.34097 | 106.66861 | 12292 ft | 387 kts | 116° |
| 2026-04-17 12:38 | 17.32952 | 106.69429 | 12904 ft | 392 kts | 115° |
| 2026-04-17 12:38 | 17.31792 | 106.72033 | 13518 ft | 397 kts | 115° |
| 2026-04-17 12:38 | 17.30627 | 106.74673 | 14115 ft | 401 kts | 115° |
| 2026-04-17 12:39 | 17.29445 | 106.77340 | 14703 ft | 406 kts | 115° |
| 2026-04-17 12:39 | 17.28251 | 106.80025 | 15276 ft | 410 kts | 115° |
| 2026-04-17 12:39 | 17.27050 | 106.82715 | 15833 ft | 414 kts | 115° |
| 2026-04-17 12:39 | 17.25820 | 106.85468 | 16384 ft | 419 kts | 115° |
| 2026-04-17 12:40 | 17.24581 | 106.88239 | 16915 ft | 423 kts | 115° |
| 2026-04-17 12:40 | 17.23324 | 106.91044 | 17433 ft | 427 kts | 115° |
| 2026-04-17 12:40 | 17.22057 | 106.93873 | 17934 ft | 431 kts | 115° |
| 2026-04-17 12:40 | 17.20781 | 106.96723 | 18435 ft | 435 kts | 115° |
| 2026-04-17 12:41 | 17.19482 | 106.99593 | 18938 ft | 438 kts | 117° |
| 2026-04-17 12:41 | 17.17917 | 107.02331 | 19414 ft | 440 kts | 126° |
| 2026-04-17 12:41 | 17.15984 | 107.04818 | 19883 ft | 442 kts | 134° |
| 2026-04-17 12:41 | 17.13738 | 107.07021 | 20335 ft | 444 kts | 141° |
| 2026-04-17 12:42 | 17.11314 | 107.09040 | 20780 ft | 446 kts | 143° |
| 2026-04-17 12:42 | 17.08899 | 107.11043 | 21216 ft | 449 kts | 142° |
| 2026-04-17 12:42 | 17.06474 | 107.13117 | 21607 ft | 452 kts | 142° |
| 2026-04-17 12:42 | 17.04028 | 107.15222 | 21988 ft | 455 kts | 142° |
| 2026-04-17 12:43 | 17.01578 | 107.17332 | 22399 ft | 457 kts | 142° |
| 2026-04-17 12:43 | 16.99152 | 107.19426 | 22766 ft | 459 kts | 141° |
| 2026-04-17 12:43 | 16.96677 | 107.21561 | 23113 ft | 462 kts | 141° |
| 2026-04-17 12:43 | 16.94190 | 107.23706 | 23466 ft | 464 kts | 142° |
| 2026-04-17 12:44 | 16.91691 | 107.25860 | 23798 ft | 466 kts | 142° |
| 2026-04-17 12:44 | 16.89185 | 107.28019 | 24119 ft | 469 kts | 142° |
| 2026-04-17 12:44 | 16.86660 | 107.30195 | 24438 ft | 471 kts | 142° |
| 2026-04-17 12:44 | 16.84128 | 107.32376 | 24757 ft | 472 kts | 142° |
| 2026-04-17 12:45 | 16.81579 | 107.34571 | 25028 ft | 475 kts | 142° |
| 2026-04-17 12:45 | 16.79023 | 107.36772 | 25316 ft | 477 kts | 142° |
| 2026-04-17 12:45 | 16.76486 | 107.38956 | 25590 ft | 479 kts | 142° |
| 2026-04-17 12:45 | 16.73908 | 107.41175 | 25854 ft | 482 kts | 142° |
| 2026-04-17 12:46 | 16.71326 | 107.43416 | 26131 ft | 483 kts | 142° |
| 2026-04-17 12:46 | 16.68716 | 107.45669 | 26383 ft | 486 kts | 142° |
| 2026-04-17 12:46 | 16.66102 | 107.47919 | 26632 ft | 488 kts | 142° |
| 2026-04-17 12:46 | 16.63477 | 107.50176 | 26873 ft | 490 kts | 142° |
| 2026-04-17 12:47 | 16.60849 | 107.52433 | 27128 ft | 491 kts | 142° |
| 2026-04-17 12:47 | 16.58237 | 107.54676 | 27342 ft | 493 kts | 142° |
| 2026-04-17 12:47 | 16.55544 | 107.56987 | 27578 ft | 495 kts | 142° |
| 2026-04-17 12:47 | 16.52884 | 107.59269 | 27794 ft | 497 kts | 142° |
| 2026-04-17 12:48 | 16.50235 | 107.61541 | 28013 ft | 498 kts | 142° |
| 2026-04-17 12:48 | 16.47556 | 107.63848 | 28193 ft | 501 kts | 142° |
| 2026-04-17 12:48 | 16.44872 | 107.66168 | 28406 ft | 502 kts | 142° |
| 2026-04-17 12:48 | 16.42214 | 107.68554 | 28624 ft | 504 kts | 139° |
| 2026-04-17 12:49 | 16.39736 | 107.71147 | 28941 ft | 505 kts | 134° |
| 2026-04-17 12:49 | 16.37476 | 107.73964 | 29219 ft | 506 kts | 129° |
| 2026-04-17 12:49 | 16.35379 | 107.76921 | 29496 ft | 507 kts | 127° |
| 2026-04-17 12:49 | 16.33330 | 107.79914 | 29772 ft | 507 kts | 128° |
| 2026-04-17 12:50 | 16.31264 | 107.82890 | 30058 ft | 507 kts | 128° |
| 2026-04-17 12:50 | 16.29213 | 107.85823 | 30299 ft | 508 kts | 128° |
| 2026-04-17 12:50 | 16.27135 | 107.88784 | 30644 ft | 506 kts | 128° |
| 2026-04-17 12:50 | 16.25036 | 107.91769 | 31024 ft | 504 kts | 128° |
| 2026-04-17 12:51 | 16.23009 | 107.94671 | 31390 ft | 502 kts | 128° |
| 2026-04-17 12:51 | 16.20949 | 107.97611 | 31715 ft | 501 kts | 128° |
| 2026-04-17 12:51 | 16.18888 | 108.00541 | 32070 ft | 500 kts | 129° |
| 2026-04-17 12:51 | 16.16837 | 108.03450 | 32410 ft | 499 kts | 129° |
| 2026-04-17 12:52 | 16.14784 | 108.06359 | 32753 ft | 497 kts | 129° |
| 2026-04-17 12:52 | 16.12743 | 108.09251 | 33117 ft | 496 kts | 129° |
| 2026-04-17 12:52 | 16.10698 | 108.12145 | 33489 ft | 494 kts | 129° |
| 2026-04-17 12:52 | 16.08590 | 108.14951 | 33811 ft | 490 kts | 136° |
| 2026-04-17 12:53 | 16.06014 | 108.17217 | 34141 ft | 482 kts | 150° |
| 2026-04-17 12:53 | 16.03028 | 108.18732 | 34449 ft | 475 kts | 165° |
| 2026-04-17 12:53 | 15.99829 | 108.19438 | 34737 ft | 468 kts | 178° |
| 2026-04-17 12:53 | 15.96632 | 108.19613 | 35023 ft | 465 kts | 182° |
| 2026-04-17 12:54 | 15.93386 | 108.19609 | 35337 ft | 464 kts | 185° |
| 2026-04-17 12:54 | 15.90173 | 108.19524 | 35655 ft | 463 kts | 185° |
| 2026-04-17 12:54 | 15.86944 | 108.19441 | 35876 ft | 464 kts | 185° |
| 2026-04-17 12:55 | 15.80454 | 108.19289 | 35905 ft | 464 kts | 185° |
| 2026-04-17 12:55 | 15.74051 | 108.19147 | 35905 ft | 462 kts | 185° |
| 2026-04-17 12:56 | 15.67593 | 108.19006 | 35904 ft | 463 kts | 184° |
| 2026-04-17 12:56 | 15.61139 | 108.18866 | 35903 ft | 463 kts | 184° |
| 2026-04-17 12:57 | 15.54690 | 108.18727 | 35903 ft | 464 kts | 185° |
| 2026-04-17 12:57 | 15.48265 | 108.18588 | 35902 ft | 464 kts | 184° |
| 2026-04-17 12:58 | 15.41787 | 108.18449 | 35901 ft | 465 kts | 184° |
| 2026-04-17 12:58 | 15.35303 | 108.18309 | 35901 ft | 465 kts | 184° |
| 2026-04-17 12:59 | 15.28861 | 108.18170 | 35900 ft | 466 kts | 184° |
| 2026-04-17 12:59 | 15.22363 | 108.18031 | 35899 ft | 466 kts | 184° |
| 2026-04-17 13:00 | 15.15854 | 108.17891 | 35898 ft | 467 kts | 184° |
| 2026-04-17 13:00 | 15.09377 | 108.17752 | 35904 ft | 467 kts | 184° |
| 2026-04-17 13:01 | 15.03924 | 108.17632 | 35905 ft | 468 kts | 184° |
| 2026-04-17 13:01 | 14.96352 | 108.17465 | 35904 ft | 469 kts | 184° |
| 2026-04-17 13:02 | 14.90913 | 108.17345 | 35904 ft | 469 kts | 184° |
| 2026-04-17 13:02 | 14.84343 | 108.17200 | 35904 ft | 470 kts | 184° |
| 2026-04-17 13:03 | 14.77839 | 108.17056 | 35904 ft | 470 kts | 184° |
| 2026-04-17 13:03 | 14.71296 | 108.16912 | 35904 ft | 470 kts | 184° |
| 2026-04-17 13:04 | 14.64741 | 108.16767 | 35903 ft | 471 kts | 184° |
| 2026-04-17 13:04 | 14.58178 | 108.16622 | 35897 ft | 471 kts | 184° |
| 2026-04-17 13:05 | 14.51617 | 108.16478 | 35886 ft | 472 kts | 184° |
| 2026-04-17 13:05 | 14.45086 | 108.16334 | 35884 ft | 472 kts | 184° |
| 2026-04-17 13:06 | 14.38519 | 108.16190 | 35884 ft | 472 kts | 184° |
| 2026-04-17 13:06 | 14.31946 | 108.16046 | 35884 ft | 472 kts | 184° |
| 2026-04-17 13:07 | 14.25357 | 108.15903 | 35884 ft | 472 kts | 184° |
| 2026-04-17 13:07 | 14.18817 | 108.15763 | 35884 ft | 473 kts | 184° |
| 2026-04-17 13:08 | 14.12233 | 108.15622 | 35884 ft | 473 kts | 184° |
| 2026-04-17 13:08 | 14.05654 | 108.15482 | 35884 ft | 473 kts | 184° |
| 2026-04-17 13:09 | 13.99054 | 108.15341 | 35884 ft | 473 kts | 184° |
| 2026-04-17 13:09 | 13.92512 | 108.15197 | 35884 ft | 473 kts | 184° |
| 2026-04-17 13:10 | 13.85934 | 108.15053 | 35884 ft | 473 kts | 184° |
| 2026-04-17 13:10 | 13.79392 | 108.14909 | 35888 ft | 472 kts | 184° |
| 2026-04-17 13:11 | 13.72760 | 108.14764 | 35890 ft | 472 kts | 184° |
| 2026-04-17 13:11 | 13.66180 | 108.14620 | 35891 ft | 473 kts | 184° |
| 2026-04-17 13:12 | 13.59644 | 108.14476 | 35888 ft | 473 kts | 184° |
| 2026-04-17 13:12 | 13.49758 | 108.14260 | 35880 ft | 473 kts | 184° |
| 2026-04-17 13:13 | 13.43266 | 108.14118 | 35882 ft | 473 kts | 184° |
| 2026-04-17 13:13 | 13.36576 | 108.13972 | 35879 ft | 473 kts | 184° |
| 2026-04-17 13:14 | 13.29989 | 108.13819 | 35881 ft | 473 kts | 184° |
| 2026-04-17 13:14 | 13.23398 | 108.13661 | 35882 ft | 473 kts | 184° |
| 2026-04-17 13:15 | 13.16807 | 108.13503 | 35882 ft | 473 kts | 184° |
| 2026-04-17 13:15 | 13.10207 | 108.13344 | 35883 ft | 474 kts | 184° |
| 2026-04-17 13:16 | 13.03613 | 108.13186 | 35883 ft | 474 kts | 184° |
| 2026-04-17 13:16 | 12.97024 | 108.13028 | 35884 ft | 474 kts | 184° |
| 2026-04-17 13:17 | 12.90460 | 108.12870 | 35884 ft | 473 kts | 184° |
| 2026-04-17 13:17 | 12.83869 | 108.12712 | 35886 ft | 474 kts | 184° |
| 2026-04-17 13:18 | 12.77261 | 108.12554 | 35886 ft | 474 kts | 184° |
| 2026-04-17 13:18 | 12.70659 | 108.12322 | 35878 ft | 472 kts | 189° |
| 2026-04-17 13:19 | 12.67482 | 108.11553 | 35887 ft | 468 kts | 202° |
| 2026-04-17 13:19 | 12.64614 | 108.10101 | 35888 ft | 464 kts | 215° |
| 2026-04-17 13:19 | 12.59695 | 108.05890 | 35885 ft | 460 kts | 226° |
| 2026-04-17 13:20 | 12.55072 | 108.01347 | 35884 ft | 460 kts | 225° |
| 2026-04-17 13:20 | 12.50398 | 107.96877 | 35884 ft | 460 kts | 225° |
| 2026-04-17 13:21 | 12.45680 | 107.92402 | 35883 ft | 460 kts | 225° |
| 2026-04-17 13:21 | 12.40978 | 107.87948 | 35882 ft | 460 kts | 225° |
| 2026-04-17 13:22 | 12.36642 | 107.83844 | 35881 ft | 461 kts | 225° |
| 2026-04-17 13:22 | 12.31934 | 107.79389 | 35879 ft | 461 kts | 225° |
| 2026-04-17 13:23 | 12.27227 | 107.74953 | 35878 ft | 461 kts | 225° |
| 2026-04-17 13:23 | 12.22502 | 107.70500 | 35877 ft | 461 kts | 225° |
| 2026-04-17 13:24 | 12.17813 | 107.66082 | 35875 ft | 461 kts | 225° |
| 2026-04-17 13:24 | 12.13103 | 107.61647 | 35874 ft | 461 kts | 225° |
| 2026-04-17 13:25 | 12.08387 | 107.57206 | 35872 ft | 460 kts | 225° |
| 2026-04-17 13:25 | 12.03685 | 107.52766 | 35871 ft | 460 kts | 225° |
| 2026-04-17 13:26 | 11.98960 | 107.48314 | 35869 ft | 460 kts | 225° |
| 2026-04-17 13:26 | 11.94248 | 107.43879 | 35867 ft | 461 kts | 225° |
| 2026-04-17 13:27 | 11.89534 | 107.39445 | 35866 ft | 460 kts | 225° |
| 2026-04-17 13:27 | 11.84845 | 107.35037 | 35864 ft | 461 kts | 225° |
| 2026-04-17 13:28 | 11.80128 | 107.30606 | 35862 ft | 460 kts | 225° |
| 2026-04-17 13:28 | 11.75410 | 107.26174 | 35861 ft | 460 kts | 225° |
| 2026-04-17 13:29 | 11.70725 | 107.21776 | 35859 ft | 460 kts | 224° |
| 2026-04-17 13:29 | 11.66010 | 107.17352 | 35857 ft | 460 kts | 225° |
| 2026-04-17 13:30 | 11.61307 | 107.12933 | 35856 ft | 460 kts | 224° |
| 2026-04-17 13:30 | 11.56617 | 107.08537 | 35855 ft | 460 kts | 224° |
| 2026-04-17 13:31 | 11.51883 | 107.04105 | 35854 ft | 460 kts | 224° |
| 2026-04-17 13:31 | 11.47165 | 106.99690 | 35852 ft | 459 kts | 224° |
| 2026-04-17 13:32 | 11.42454 | 106.95281 | 35851 ft | 459 kts | 224° |
| 2026-04-17 13:32 | 11.37765 | 106.90896 | 35850 ft | 459 kts | 224° |
| 2026-04-17 13:33 | 11.33052 | 106.86491 | 35849 ft | 459 kts | 224° |
| 2026-04-17 13:33 | 11.28344 | 106.82078 | 35849 ft | 459 kts | 224° |
| 2026-04-17 13:34 | 11.23660 | 106.77700 | 35848 ft | 460 kts | 224° |
| 2026-04-17 13:34 | 11.18950 | 106.73302 | 35848 ft | 460 kts | 224° |
| 2026-04-17 13:35 | 11.14225 | 106.68892 | 35847 ft | 460 kts | 224° |
| 2026-04-17 13:35 | 11.12087 | 106.66897 | 35610 ft | 462 kts | 224° |
| 2026-04-17 13:35 | 11.11773 | 106.66604 | 35536 ft | 462 kts | 224° |
| 2026-04-17 13:36 | 11.08737 | 106.63771 | 34616 ft | 461 kts | 224° |
| 2026-04-17 13:36 | 11.06123 | 106.61333 | 33689 ft | 463 kts | 224° |
| 2026-04-17 13:36 | 11.03744 | 106.59117 | 32889 ft | 463 kts | 224° |
| 2026-04-17 13:36 | 11.01429 | 106.56963 | 32086 ft | 464 kts | 224° |
| 2026-04-17 13:37 | 10.98970 | 106.54674 | 31208 ft | 465 kts | 224° |
| 2026-04-17 13:37 | 10.96608 | 106.52477 | 30357 ft | 465 kts | 224° |
| 2026-04-17 13:37 | 10.94989 | 106.50971 | 29760 ft | 466 kts | 224° |
| 2026-04-17 13:37 | 10.93143 | 106.49254 | 29063 ft | 466 kts | 224° |
| 2026-04-17 13:38 | 10.90701 | 106.46984 | 28242 ft | 466 kts | 224° |
| 2026-04-17 13:38 | 10.88339 | 106.44787 | 27579 ft | 462 kts | 224° |
| 2026-04-17 13:38 | 10.85943 | 106.42558 | 26905 ft | 458 kts | 224° |
| 2026-04-17 13:38 | 10.83594 | 106.40374 | 26245 ft | 454 kts | 224° |
| 2026-04-17 13:39 | 10.81274 | 106.38216 | 25590 ft | 450 kts | 223° |
| 2026-04-17 13:39 | 10.78964 | 106.36068 | 24929 ft | 447 kts | 223° |
| 2026-04-17 13:39 | 10.76677 | 106.33942 | 24271 ft | 444 kts | 223° |
| 2026-04-17 13:39 | 10.74427 | 106.31851 | 23622 ft | 440 kts | 223° |
| 2026-04-17 13:40 | 10.72174 | 106.29756 | 22970 ft | 437 kts | 223° |
| 2026-04-17 13:40 | 10.69934 | 106.27675 | 22318 ft | 434 kts | 223° |
| 2026-04-17 13:40 | 10.67961 | 106.25842 | 21743 ft | 431 kts | 222° |
| 2026-04-17 13:40 | 10.66630 | 106.24606 | 21352 ft | 429 kts | 222° |
| 2026-04-17 13:41 | 10.64537 | 106.22662 | 20769 ft | 425 kts | 222° |
| 2026-04-17 13:41 | 10.62310 | 106.20586 | 20096 ft | 422 kts | 222° |
| 2026-04-17 13:41 | 10.60148 | 106.18574 | 19455 ft | 419 kts | 221° |
| 2026-04-17 13:41 | 10.58003 | 106.16580 | 18817 ft | 416 kts | 221° |
| 2026-04-17 13:42 | 10.55873 | 106.14601 | 18181 ft | 412 kts | 221° |
| 2026-04-17 13:42 | 10.53796 | 106.12672 | 17558 ft | 409 kts | 221° |
| 2026-04-17 13:42 | 10.51695 | 106.10719 | 16923 ft | 406 kts | 221° |
| 2026-04-17 13:42 | 10.49611 | 106.08780 | 16294 ft | 404 kts | 221° |
| 2026-04-17 13:43 | 10.47547 | 106.06863 | 15671 ft | 401 kts | 221° |
| 2026-04-17 13:43 | 10.45518 | 106.04980 | 15059 ft | 399 kts | 221° |
| 2026-04-17 13:43 | 10.43446 | 106.03059 | 14431 ft | 396 kts | 221° |
| 2026-04-17 13:43 | 10.41412 | 106.01173 | 13817 ft | 394 kts | 221° |
| 2026-04-17 13:44 | 10.39390 | 105.99300 | 13206 ft | 392 kts | 221° |
| 2026-04-17 13:44 | 10.37375 | 105.97432 | 12570 ft | 391 kts | 221° |
| 2026-04-17 13:44 | 10.35358 | 105.95564 | 11857 ft | 392 kts | 221° |
| 2026-04-17 13:44 | 10.33346 | 105.93700 | 11225 ft | 390 kts | 221° |
| 2026-04-17 13:45 | 10.31372 | 105.91872 | 10630 ft | 388 kts | 222° |
| 2026-04-17 13:45 | 10.29908 | 105.90517 | 10292 ft | 383 kts | 222° |
| 2026-04-17 13:45 | 10.28049 | 105.88917 | 10226 ft | 366 kts | 217° |
| 2026-04-17 13:46 | 10.26025 | 105.87494 | 10183 ft | 350 kts | 212° |
| 2026-04-17 13:46 | 10.23960 | 105.86212 | 10101 ft | 336 kts | 210° |
| 2026-04-17 13:46 | 10.22018 | 105.85028 | 10019 ft | 324 kts | 211° |
| 2026-04-17 13:46 | 10.20107 | 105.83848 | 9936 ft | 312 kts | 211° |
| 2026-04-17 13:47 | 10.18312 | 105.82731 | 9890 ft | 300 kts | 211° |
| 2026-04-17 13:47 | 10.16562 | 105.81637 | 9689 ft | 294 kts | 211° |
| 2026-04-17 13:47 | 10.14813 | 105.80541 | 9290 ft | 295 kts | 212° |
| 2026-04-17 13:47 | 10.13066 | 105.79445 | 8950 ft | 294 kts | 212° |
| 2026-04-17 13:48 | 10.11337 | 105.78360 | 8612 ft | 293 kts | 212° |
| 2026-04-17 13:48 | 10.09600 | 105.77268 | 8272 ft | 292 kts | 212° |
| 2026-04-17 13:48 | 10.07874 | 105.76184 | 7933 ft | 291 kts | 212° |
| 2026-04-17 13:48 | 10.06735 | 105.75468 | 7709 ft | 291 kts | 212° |
| 2026-04-17 13:49 | 10.04431 | 105.74021 | 7244 ft | 290 kts | 212° |
| 2026-04-17 13:49 | 10.03296 | 105.73307 | 7017 ft | 289 kts | 212° |
| 2026-04-17 13:49 | 10.01589 | 105.72236 | 6673 ft | 288 kts | 212° |
| 2026-04-17 13:49 | 9.99886 | 105.71163 | 6325 ft | 286 kts | 212° |
| 2026-04-17 13:50 | 9.99056 | 105.70574 | 6147 ft | 286 kts | 218° |
| 2026-04-17 13:50 | 9.98249 | 105.69869 | 6034 ft | 282 kts | 223° |